SFR171 FALE-FACT
Flight info
| Callsign | SFR171 |
|---|---|
| Flight time | 1h 51m |
| Altitude | 36000 |
| Route | TUBIN1B TUBIN UZ3 ESRUK UQ51 GETEN GETEN1B |
| Aircraft | B738/M-SDE2E3FGHIRWXY/LB1 |
Departure
| Time | 2026-05-07 09:15 |
|---|---|
| Airport | King Shaka International Airport (FALE) |
Arrival
| Time | 2026-05-07 11:07 |
|---|---|
| Airport | Cape Town International Airport (FACT) |
| Time | Latitude | Longitude | Altitude | Speed | Heading |
|---|---|---|---|---|---|
| 2026-05-07 08:53 | -29.61997 | 31.10550 | 323 ft | 0 kts | 306° |
| 2026-05-07 09:05 | -29.62001 | 31.10557 | 300 ft | 4 kts | 307° |
| 2026-05-07 09:05 | -29.62018 | 31.10580 | 299 ft | 4 kts | 320° |
| 2026-05-07 09:05 | -29.62038 | 31.10590 | 300 ft | 3 kts | 20° |
| 2026-05-07 09:06 | -29.62060 | 31.10580 | 299 ft | 4 kts | 34° |
| 2026-05-07 09:06 | -29.62067 | 31.10574 | 298 ft | 1 kts | 37° |
| 2026-05-07 09:08 | -29.62054 | 31.10586 | 298 ft | 5 kts | 37° |
| 2026-05-07 09:08 | -29.62012 | 31.10622 | 298 ft | 10 kts | 37° |
| 2026-05-07 09:08 | -29.61978 | 31.10678 | 298 ft | 8 kts | 121° |
| 2026-05-07 09:09 | -29.62015 | 31.10733 | 296 ft | 10 kts | 127° |
| 2026-05-07 09:09 | -29.62067 | 31.10812 | 295 ft | 13 kts | 128° |
| 2026-05-07 09:09 | -29.62080 | 31.10896 | 296 ft | 12 kts | 47° |
| 2026-05-07 09:09 | -29.62004 | 31.10963 | 298 ft | 16 kts | 37° |
| 2026-05-07 09:10 | -29.61906 | 31.11049 | 298 ft | 19 kts | 37° |
| 2026-05-07 09:10 | -29.61798 | 31.11143 | 298 ft | 21 kts | 37° |
| 2026-05-07 09:10 | -29.61671 | 31.11254 | 294 ft | 25 kts | 37° |
| 2026-05-07 09:10 | -29.61525 | 31.11379 | 297 ft | 26 kts | 37° |
| 2026-05-07 09:11 | -29.61387 | 31.11500 | 298 ft | 24 kts | 37° |
| 2026-05-07 09:11 | -29.61257 | 31.11613 | 302 ft | 24 kts | 37° |
| 2026-05-07 09:11 | -29.61109 | 31.11743 | 304 ft | 28 kts | 37° |
| 2026-05-07 09:11 | -29.60954 | 31.11878 | 302 ft | 29 kts | 37° |
| 2026-05-07 09:12 | -29.60786 | 31.12025 | 303 ft | 30 kts | 37° |
| 2026-05-07 09:12 | -29.60623 | 31.12166 | 303 ft | 28 kts | 37° |
| 2026-05-07 09:12 | -29.60469 | 31.12299 | 308 ft | 27 kts | 38° |
| 2026-05-07 09:12 | -29.60326 | 31.12425 | 309 ft | 25 kts | 37° |
| 2026-05-07 09:13 | -29.60177 | 31.12555 | 308 ft | 27 kts | 37° |
| 2026-05-07 09:13 | -29.60030 | 31.12682 | 309 ft | 25 kts | 37° |
| 2026-05-07 09:13 | -29.59894 | 31.12802 | 306 ft | 24 kts | 37° |
| 2026-05-07 09:13 | -29.59786 | 31.12896 | 309 ft | 15 kts | 38° |
| 2026-05-07 09:14 | -29.59800 | 31.12994 | 307 ft | 14 kts | 127° |
| 2026-05-07 09:14 | -29.59852 | 31.13065 | 303 ft | 9 kts | 158° |
| 2026-05-07 09:14 | -29.59908 | 31.13030 | 303 ft | 10 kts | 218° |
| 2026-05-07 09:14 | -29.60056 | 31.12901 | 304 ft | 59 kts | 217° |
| 2026-05-07 09:15 | -29.60572 | 31.12453 | 303 ft | 125 kts | 217° |
| 2026-05-07 09:15 | -29.61423 | 31.11718 | 355 ft | 174 kts | 217° |
| 2026-05-07 09:15 | -29.62408 | 31.10886 | 1108 ft | 174 kts | 217° |
| 2026-05-07 09:15 | -29.63390 | 31.10032 | 1826 ft | 179 kts | 221° |
| 2026-05-07 09:16 | -29.64385 | 31.09128 | 2450 ft | 191 kts | 221° |
| 2026-05-07 09:16 | -29.65478 | 31.08087 | 2892 ft | 215 kts | 229° |
| 2026-05-07 09:16 | -29.66353 | 31.06643 | 3275 ft | 233 kts | 242° |
| 2026-05-07 09:16 | -29.67188 | 31.04961 | 3619 ft | 254 kts | 243° |
| 2026-05-07 09:17 | -29.68095 | 31.03102 | 4140 ft | 271 kts | 243° |
| 2026-05-07 09:17 | -29.69012 | 31.01219 | 5167 ft | 268 kts | 243° |
| 2026-05-07 09:17 | -29.69913 | 30.99369 | 6234 ft | 263 kts | 243° |
| 2026-05-07 09:17 | -29.70806 | 30.97532 | 7128 ft | 264 kts | 242° |
| 2026-05-07 09:18 | -29.71697 | 30.95698 | 8043 ft | 262 kts | 242° |
| 2026-05-07 09:18 | -29.72583 | 30.93873 | 8967 ft | 261 kts | 242° |
| 2026-05-07 09:18 | -29.73465 | 30.92058 | 9880 ft | 259 kts | 242° |
| 2026-05-07 09:18 | -29.74364 | 30.90202 | 10351 ft | 276 kts | 242° |
| 2026-05-07 09:19 | -29.75345 | 30.88174 | 10509 ft | 302 kts | 242° |
| 2026-05-07 09:19 | -29.76405 | 30.85985 | 10687 ft | 324 kts | 242° |
| 2026-05-07 09:19 | -29.77524 | 30.83678 | 11135 ft | 335 kts | 242° |
| 2026-05-07 09:19 | -29.78655 | 30.81344 | 11768 ft | 340 kts | 242° |
| 2026-05-07 09:20 | -29.79816 | 30.78944 | 12449 ft | 344 kts | 243° |
| 2026-05-07 09:20 | -29.80989 | 30.76518 | 13124 ft | 349 kts | 243° |
| 2026-05-07 09:20 | -29.82177 | 30.74060 | 13785 ft | 353 kts | 243° |
| 2026-05-07 09:20 | -29.83376 | 30.71578 | 14463 ft | 355 kts | 243° |
| 2026-05-07 09:21 | -29.84581 | 30.69084 | 15055 ft | 359 kts | 244° |
| 2026-05-07 09:21 | -29.85804 | 30.66548 | 15642 ft | 363 kts | 244° |
| 2026-05-07 09:21 | -29.87036 | 30.63993 | 16282 ft | 366 kts | 244° |
| 2026-05-07 09:21 | -29.88275 | 30.61420 | 16905 ft | 369 kts | 245° |
| 2026-05-07 09:22 | -29.89507 | 30.58863 | 17519 ft | 371 kts | 245° |
| 2026-05-07 09:22 | -29.90767 | 30.56244 | 18062 ft | 375 kts | 245° |
| 2026-05-07 09:22 | -29.92038 | 30.53600 | 18537 ft | 379 kts | 245° |
| 2026-05-07 09:22 | -29.93320 | 30.50933 | 19064 ft | 381 kts | 245° |
| 2026-05-07 09:23 | -29.94609 | 30.48252 | 19555 ft | 384 kts | 245° |
| 2026-05-07 09:23 | -29.95907 | 30.45547 | 20038 ft | 387 kts | 245° |
| 2026-05-07 09:23 | -29.97215 | 30.42820 | 20538 ft | 390 kts | 246° |
| 2026-05-07 09:23 | -29.98533 | 30.40070 | 21048 ft | 392 kts | 246° |
| 2026-05-07 09:24 | -29.99856 | 30.37308 | 21510 ft | 395 kts | 245° |
| 2026-05-07 09:24 | -30.01189 | 30.34523 | 21892 ft | 399 kts | 245° |
| 2026-05-07 09:24 | -30.02521 | 30.31741 | 22330 ft | 402 kts | 246° |
| 2026-05-07 09:24 | -30.03884 | 30.28901 | 22850 ft | 405 kts | 245° |
| 2026-05-07 09:25 | -30.05284 | 30.26079 | 23325 ft | 407 kts | 245° |
| 2026-05-07 09:25 | -30.06716 | 30.23245 | 23654 ft | 411 kts | 244° |
| 2026-05-07 09:25 | -30.08169 | 30.20382 | 23991 ft | 414 kts | 244° |
| 2026-05-07 09:25 | -30.09626 | 30.17507 | 24407 ft | 414 kts | 244° |
| 2026-05-07 09:26 | -30.11086 | 30.14618 | 24821 ft | 416 kts | 245° |
| 2026-05-07 09:26 | -30.12525 | 30.11760 | 25161 ft | 418 kts | 245° |
| 2026-05-07 09:26 | -30.13986 | 30.08851 | 25537 ft | 419 kts | 245° |
| 2026-05-07 09:26 | -30.15449 | 30.05933 | 25920 ft | 420 kts | 244° |
| 2026-05-07 09:27 | -30.16918 | 30.03001 | 26252 ft | 423 kts | 245° |
| 2026-05-07 09:27 | -30.18396 | 30.00046 | 26551 ft | 425 kts | 245° |
| 2026-05-07 09:27 | -30.21368 | 29.94101 | 27205 ft | 428 kts | 245° |
| 2026-05-07 09:28 | -30.22860 | 29.91113 | 27528 ft | 430 kts | 245° |
| 2026-05-07 09:28 | -30.24362 | 29.88104 | 27814 ft | 432 kts | 245° |
| 2026-05-07 09:28 | -30.25870 | 29.85081 | 28092 ft | 434 kts | 245° |
| 2026-05-07 09:28 | -30.27379 | 29.82052 | 28374 ft | 436 kts | 244° |
| 2026-05-07 09:29 | -30.28858 | 29.78972 | 28626 ft | 436 kts | 247° |
| 2026-05-07 09:29 | -30.30161 | 29.75862 | 29035 ft | 434 kts | 249° |
| 2026-05-07 09:29 | -30.31424 | 29.72700 | 29522 ft | 431 kts | 249° |
| 2026-05-07 09:29 | -30.32661 | 29.69548 | 29923 ft | 430 kts | 250° |
| 2026-05-07 09:30 | -30.33896 | 29.66400 | 30255 ft | 429 kts | 250° |
| 2026-05-07 09:30 | -30.35132 | 29.63260 | 30642 ft | 427 kts | 250° |
| 2026-05-07 09:30 | -30.36363 | 29.60150 | 31036 ft | 424 kts | 250° |
| 2026-05-07 09:30 | -30.37594 | 29.57050 | 31401 ft | 423 kts | 250° |
| 2026-05-07 09:31 | -30.38823 | 29.53961 | 31673 ft | 423 kts | 250° |
| 2026-05-07 09:31 | -30.40061 | 29.50851 | 31815 ft | 426 kts | 250° |
| 2026-05-07 09:31 | -30.41308 | 29.47714 | 32000 ft | 429 kts | 250° |
| 2026-05-07 09:31 | -30.42553 | 29.44586 | 32378 ft | 426 kts | 250° |
| 2026-05-07 09:32 | -30.43780 | 29.41506 | 32833 ft | 422 kts | 250° |
| 2026-05-07 09:32 | -30.45004 | 29.38429 | 33208 ft | 420 kts | 250° |
| 2026-05-07 09:32 | -30.46224 | 29.35356 | 33495 ft | 419 kts | 250° |
| 2026-05-07 09:32 | -30.47444 | 29.32281 | 33802 ft | 419 kts | 250° |
| 2026-05-07 09:33 | -30.48659 | 29.29214 | 34101 ft | 417 kts | 250° |
| 2026-05-07 09:33 | -30.49869 | 29.26155 | 34308 ft | 417 kts | 250° |
| 2026-05-07 09:33 | -30.51064 | 29.23132 | 34517 ft | 418 kts | 250° |
| 2026-05-07 09:33 | -30.52277 | 29.20060 | 34658 ft | 419 kts | 250° |
| 2026-05-07 09:34 | -30.53491 | 29.16985 | 34907 ft | 418 kts | 250° |
| 2026-05-07 09:34 | -30.54699 | 29.13925 | 35189 ft | 416 kts | 251° |
| 2026-05-07 09:34 | -30.55904 | 29.10871 | 35394 ft | 416 kts | 251° |
| 2026-05-07 09:34 | -30.57108 | 29.07817 | 35561 ft | 416 kts | 251° |
| 2026-05-07 09:35 | -30.58310 | 29.04762 | 35806 ft | 415 kts | 251° |
| 2026-05-07 09:35 | -30.60700 | 28.98678 | 35883 ft | 414 kts | 251° |
| 2026-05-07 09:36 | -30.63091 | 28.92581 | 35889 ft | 415 kts | 251° |
| 2026-05-07 09:36 | -30.65080 | 28.87504 | 35894 ft | 416 kts | 251° |
| 2026-05-07 09:37 | -30.67867 | 28.80380 | 35895 ft | 416 kts | 251° |
| 2026-05-07 09:37 | -30.69872 | 28.75244 | 35894 ft | 417 kts | 250° |
| 2026-05-07 09:38 | -30.72262 | 28.69119 | 35883 ft | 416 kts | 251° |
| 2026-05-07 09:38 | -30.74628 | 28.63036 | 35916 ft | 415 kts | 251° |
| 2026-05-07 09:39 | -30.77004 | 28.56921 | 35887 ft | 415 kts | 251° |
| 2026-05-07 09:39 | -30.79378 | 28.50807 | 35898 ft | 414 kts | 251° |
| 2026-05-07 09:40 | -30.81744 | 28.44706 | 35902 ft | 413 kts | 251° |
| 2026-05-07 09:40 | -30.84103 | 28.38611 | 35916 ft | 412 kts | 251° |
| 2026-05-07 09:41 | -30.86455 | 28.32521 | 35915 ft | 412 kts | 250° |
| 2026-05-07 09:41 | -30.88807 | 28.26417 | 35922 ft | 414 kts | 250° |
| 2026-05-07 09:42 | -30.91162 | 28.20292 | 35947 ft | 420 kts | 250° |
| 2026-05-07 09:42 | -30.93553 | 28.14050 | 35962 ft | 423 kts | 250° |
| 2026-05-07 09:43 | -30.95946 | 28.07772 | 35940 ft | 425 kts | 250° |
| 2026-05-07 09:43 | -30.98340 | 28.01491 | 35955 ft | 425 kts | 249° |
| 2026-05-07 09:44 | -31.00732 | 27.95201 | 35960 ft | 423 kts | 249° |
| 2026-05-07 09:44 | -31.03123 | 27.88932 | 35956 ft | 422 kts | 249° |
| 2026-05-07 09:45 | -31.05515 | 27.82690 | 35962 ft | 421 kts | 249° |
| 2026-05-07 09:45 | -31.07889 | 27.76480 | 35960 ft | 418 kts | 249° |
| 2026-05-07 09:46 | -31.10246 | 27.70301 | 35976 ft | 416 kts | 249° |
| 2026-05-07 09:46 | -31.12575 | 27.64180 | 35983 ft | 414 kts | 250° |
| 2026-05-07 09:47 | -31.14907 | 27.58041 | 35987 ft | 413 kts | 249° |
| 2026-05-07 09:47 | -31.17233 | 27.51906 | 35979 ft | 413 kts | 249° |
| 2026-05-07 09:48 | -31.19562 | 27.45752 | 35994 ft | 413 kts | 249° |
| 2026-05-07 09:48 | -31.21872 | 27.39641 | 35987 ft | 415 kts | 249° |
| 2026-05-07 09:49 | -31.24207 | 27.33451 | 35975 ft | 417 kts | 249° |
| 2026-05-07 09:49 | -31.26547 | 27.27237 | 35975 ft | 418 kts | 249° |
| 2026-05-07 09:50 | -31.28895 | 27.20991 | 35985 ft | 419 kts | 249° |
| 2026-05-07 09:50 | -31.31242 | 27.14736 | 35983 ft | 421 kts | 249° |
| 2026-05-07 09:51 | -31.33576 | 27.08503 | 35991 ft | 421 kts | 249° |
| 2026-05-07 09:51 | -31.35927 | 27.02218 | 35980 ft | 421 kts | 249° |
| 2026-05-07 09:52 | -31.38267 | 26.95940 | 35986 ft | 420 kts | 249° |
| 2026-05-07 09:52 | -31.40582 | 26.89664 | 35983 ft | 418 kts | 249° |
| 2026-05-07 09:53 | -31.42854 | 26.83463 | 36007 ft | 415 kts | 249° |
| 2026-05-07 09:53 | -31.45124 | 26.77264 | 35998 ft | 413 kts | 249° |
| 2026-05-07 09:54 | -31.47389 | 26.71077 | 35995 ft | 412 kts | 249° |
| 2026-05-07 09:54 | -31.49645 | 26.64901 | 35992 ft | 411 kts | 249° |
| 2026-05-07 09:55 | -31.51892 | 26.58739 | 35991 ft | 412 kts | 249° |
| 2026-05-07 09:55 | -31.54157 | 26.52521 | 36012 ft | 418 kts | 249° |
| 2026-05-07 09:56 | -31.56449 | 26.46245 | 36007 ft | 420 kts | 249° |
| 2026-05-07 09:56 | -31.58759 | 26.39945 | 36017 ft | 421 kts | 249° |
| 2026-05-07 09:57 | -31.61055 | 26.33667 | 36043 ft | 421 kts | 248° |
| 2026-05-07 09:57 | -31.63359 | 26.27356 | 36022 ft | 421 kts | 249° |
| 2026-05-07 09:58 | -31.65659 | 26.21039 | 36023 ft | 420 kts | 248° |
| 2026-05-07 09:58 | -31.67951 | 26.14731 | 36026 ft | 419 kts | 249° |
| 2026-05-07 09:59 | -31.70237 | 26.08428 | 36033 ft | 419 kts | 249° |
| 2026-05-07 09:59 | -31.72514 | 26.02140 | 36034 ft | 418 kts | 249° |
| 2026-05-07 10:00 | -31.74771 | 25.95894 | 36028 ft | 418 kts | 249° |
| 2026-05-07 10:00 | -31.77037 | 25.89612 | 36029 ft | 417 kts | 249° |
| 2026-05-07 10:01 | -31.79299 | 25.83329 | 36031 ft | 417 kts | 249° |
| 2026-05-07 10:01 | -31.81560 | 25.77039 | 36028 ft | 417 kts | 249° |
| 2026-05-07 10:02 | -31.83819 | 25.70742 | 36029 ft | 418 kts | 249° |
| 2026-05-07 10:02 | -31.86078 | 25.64431 | 36030 ft | 418 kts | 249° |
| 2026-05-07 10:03 | -31.88316 | 25.58162 | 36037 ft | 419 kts | 248° |
| 2026-05-07 10:03 | -31.90579 | 25.51825 | 36033 ft | 419 kts | 248° |
| 2026-05-07 10:04 | -31.92840 | 25.45474 | 36031 ft | 420 kts | 249° |
| 2026-05-07 10:04 | -31.95081 | 25.39170 | 36042 ft | 420 kts | 249° |
| 2026-05-07 10:05 | -31.97335 | 25.32815 | 36053 ft | 420 kts | 248° |
| 2026-05-07 10:05 | -31.99582 | 25.26466 | 36059 ft | 419 kts | 248° |
| 2026-05-07 10:06 | -32.01820 | 25.20135 | 36051 ft | 418 kts | 248° |
| 2026-05-07 10:06 | -32.04046 | 25.13823 | 36072 ft | 416 kts | 248° |
| 2026-05-07 10:07 | -32.06257 | 25.07543 | 36077 ft | 414 kts | 248° |
| 2026-05-07 10:07 | -32.08445 | 25.01314 | 36087 ft | 413 kts | 248° |
| 2026-05-07 10:08 | -32.10641 | 24.95055 | 36091 ft | 413 kts | 248° |
| 2026-05-07 10:08 | -32.12837 | 24.88780 | 36097 ft | 414 kts | 248° |
| 2026-05-07 10:09 | -32.15042 | 24.82468 | 36099 ft | 416 kts | 248° |
| 2026-05-07 10:09 | -32.17240 | 24.76166 | 36108 ft | 419 kts | 248° |
| 2026-05-07 10:10 | -32.19461 | 24.69784 | 36097 ft | 420 kts | 248° |
| 2026-05-07 10:10 | -32.21686 | 24.63378 | 36104 ft | 422 kts | 248° |
| 2026-05-07 10:11 | -32.23914 | 24.56953 | 36094 ft | 423 kts | 248° |
| 2026-05-07 10:11 | -32.26141 | 24.50518 | 36088 ft | 423 kts | 248° |
| 2026-05-07 10:12 | -32.28350 | 24.44121 | 36094 ft | 423 kts | 248° |
| 2026-05-07 10:12 | -32.30573 | 24.37671 | 36086 ft | 423 kts | 248° |
| 2026-05-07 10:13 | -32.32787 | 24.31235 | 36083 ft | 422 kts | 248° |
| 2026-05-07 10:13 | -32.34990 | 24.24818 | 36084 ft | 420 kts | 248° |
| 2026-05-07 10:14 | -32.37179 | 24.18428 | 36084 ft | 418 kts | 249° |
| 2026-05-07 10:14 | -32.39359 | 24.12054 | 36096 ft | 417 kts | 249° |
| 2026-05-07 10:15 | -32.41531 | 24.05691 | 36099 ft | 417 kts | 249° |
| 2026-05-07 10:15 | -32.43685 | 23.99367 | 36099 ft | 417 kts | 249° |
| 2026-05-07 10:16 | -32.45843 | 23.92994 | 36104 ft | 417 kts | 249° |
| 2026-05-07 10:16 | -32.47996 | 23.86614 | 36097 ft | 418 kts | 249° |
| 2026-05-07 10:17 | -32.50134 | 23.80266 | 36099 ft | 418 kts | 249° |
| 2026-05-07 10:17 | -32.52289 | 23.73857 | 36099 ft | 419 kts | 249° |
| 2026-05-07 10:18 | -32.54446 | 23.67429 | 36106 ft | 420 kts | 249° |
| 2026-05-07 10:18 | -32.56595 | 23.61014 | 36104 ft | 421 kts | 249° |
| 2026-05-07 10:19 | -32.58758 | 23.54543 | 36103 ft | 422 kts | 249° |
| 2026-05-07 10:19 | -32.60920 | 23.48061 | 36104 ft | 422 kts | 249° |
| 2026-05-07 10:20 | -32.63081 | 23.41572 | 36107 ft | 423 kts | 249° |
| 2026-05-07 10:20 | -32.65230 | 23.35113 | 36107 ft | 423 kts | 249° |
| 2026-05-07 10:21 | -32.67396 | 23.28615 | 36108 ft | 423 kts | 249° |
| 2026-05-07 10:21 | -32.69563 | 23.22106 | 36106 ft | 423 kts | 249° |
| 2026-05-07 10:22 | -32.71705 | 23.15656 | 36102 ft | 422 kts | 249° |
| 2026-05-07 10:22 | -32.73855 | 23.09166 | 36108 ft | 422 kts | 250° |
| 2026-05-07 10:23 | -32.75997 | 23.02685 | 36105 ft | 421 kts | 250° |
| 2026-05-07 10:23 | -32.78135 | 22.96204 | 36111 ft | 421 kts | 250° |
| 2026-05-07 10:24 | -32.79907 | 22.90824 | 36115 ft | 420 kts | 250° |
| 2026-05-07 10:24 | -32.82034 | 22.84351 | 36117 ft | 420 kts | 250° |
| 2026-05-07 10:25 | -32.84159 | 22.77874 | 36124 ft | 420 kts | 250° |
| 2026-05-07 10:25 | -32.86278 | 22.71399 | 36125 ft | 420 kts | 250° |
| 2026-05-07 10:26 | -32.88396 | 22.64914 | 36126 ft | 420 kts | 250° |
| 2026-05-07 10:26 | -32.90497 | 22.58471 | 36131 ft | 421 kts | 250° |
| 2026-05-07 10:27 | -32.92782 | 22.52056 | 36129 ft | 421 kts | 246° |
| 2026-05-07 10:27 | -32.95325 | 22.45750 | 36128 ft | 422 kts | 245° |
| 2026-05-07 10:28 | -32.97882 | 22.39450 | 36132 ft | 423 kts | 245° |
| 2026-05-07 10:28 | -33.00413 | 22.33133 | 36129 ft | 422 kts | 245° |
| 2026-05-07 10:29 | -33.02928 | 22.26806 | 36135 ft | 422 kts | 246° |
| 2026-05-07 10:29 | -33.05436 | 22.20472 | 36137 ft | 422 kts | 246° |
| 2026-05-07 10:30 | -33.09173 | 22.11014 | 36135 ft | 421 kts | 246° |
| 2026-05-07 10:30 | -33.11668 | 22.04685 | 36143 ft | 421 kts | 246° |
| 2026-05-07 10:31 | -33.14154 | 21.98366 | 36152 ft | 420 kts | 246° |
| 2026-05-07 10:31 | -33.16620 | 21.92088 | 36151 ft | 420 kts | 246° |
| 2026-05-07 10:32 | -33.19082 | 21.85809 | 36151 ft | 420 kts | 246° |
| 2026-05-07 10:32 | -33.21553 | 21.79495 | 36177 ft | 420 kts | 246° |
| 2026-05-07 10:33 | -33.24025 | 21.73166 | 36156 ft | 420 kts | 246° |
| 2026-05-07 10:33 | -33.26496 | 21.66830 | 36158 ft | 421 kts | 246° |
| 2026-05-07 10:34 | -33.28967 | 21.60479 | 36154 ft | 421 kts | 246° |
| 2026-05-07 10:34 | -33.31441 | 21.54108 | 36153 ft | 422 kts | 246° |
| 2026-05-07 10:35 | -33.33890 | 21.47793 | 36169 ft | 423 kts | 246° |
| 2026-05-07 10:35 | -33.36367 | 21.41392 | 36168 ft | 424 kts | 246° |
| 2026-05-07 10:36 | -33.38843 | 21.34981 | 36172 ft | 425 kts | 246° |
| 2026-05-07 10:36 | -33.41320 | 21.28554 | 36174 ft | 425 kts | 246° |
| 2026-05-07 10:37 | -33.43791 | 21.22131 | 36181 ft | 425 kts | 246° |
| 2026-05-07 10:37 | -33.46249 | 21.15734 | 36177 ft | 425 kts | 246° |
| 2026-05-07 10:38 | -33.48716 | 21.09296 | 36182 ft | 425 kts | 246° |
| 2026-05-07 10:38 | -33.51183 | 21.02848 | 36181 ft | 425 kts | 246° |
| 2026-05-07 10:39 | -33.53641 | 20.96410 | 36183 ft | 424 kts | 246° |
| 2026-05-07 10:39 | -33.56095 | 20.89968 | 36189 ft | 424 kts | 246° |
| 2026-05-07 10:40 | -33.58530 | 20.83563 | 36011 ft | 427 kts | 246° |
| 2026-05-07 10:40 | -33.59767 | 20.80304 | 35603 ft | 427 kts | 246° |
| 2026-05-07 10:40 | -33.60990 | 20.77080 | 35121 ft | 423 kts | 246° |
| 2026-05-07 10:41 | -33.62200 | 20.73888 | 34717 ft | 419 kts | 246° |
| 2026-05-07 10:41 | -33.63401 | 20.70717 | 34282 ft | 416 kts | 246° |
| 2026-05-07 10:41 | -33.64593 | 20.67566 | 33791 ft | 412 kts | 246° |
| 2026-05-07 10:41 | -33.65773 | 20.64442 | 33334 ft | 408 kts | 246° |
| 2026-05-07 10:42 | -33.66940 | 20.61352 | 32895 ft | 404 kts | 246° |
| 2026-05-07 10:42 | -33.68095 | 20.58288 | 32466 ft | 400 kts | 246° |
| 2026-05-07 10:42 | -33.69238 | 20.55255 | 32054 ft | 397 kts | 246° |
| 2026-05-07 10:42 | -33.70368 | 20.52253 | 31642 ft | 393 kts | 246° |
| 2026-05-07 10:43 | -33.71489 | 20.49272 | 31237 ft | 389 kts | 246° |
| 2026-05-07 10:43 | -33.72600 | 20.46315 | 30837 ft | 386 kts | 246° |
| 2026-05-07 10:43 | -33.73685 | 20.43428 | 30445 ft | 383 kts | 246° |
| 2026-05-07 10:43 | -33.74774 | 20.40523 | 30012 ft | 379 kts | 246° |
| 2026-05-07 10:44 | -33.75826 | 20.37636 | 29673 ft | 373 kts | 250° |
| 2026-05-07 10:44 | -33.76486 | 20.34671 | 29375 ft | 367 kts | 259° |
| 2026-05-07 10:44 | -33.76735 | 20.31590 | 28338 ft | 379 kts | 268° |
| 2026-05-07 10:44 | -33.76684 | 20.28336 | 26935 ft | 399 kts | 269° |
| 2026-05-07 10:45 | -33.76585 | 20.24929 | 25799 ft | 413 kts | 269° |
| 2026-05-07 10:45 | -33.76472 | 20.21472 | 25080 ft | 414 kts | 269° |
| 2026-05-07 10:45 | -33.76361 | 20.18030 | 24590 ft | 409 kts | 269° |
| 2026-05-07 10:45 | -33.76257 | 20.14631 | 24112 ft | 404 kts | 269° |
| 2026-05-07 10:46 | -33.76160 | 20.11272 | 23544 ft | 401 kts | 269° |
| 2026-05-07 10:46 | -33.76068 | 20.07938 | 22914 ft | 398 kts | 269° |
| 2026-05-07 10:46 | -33.75980 | 20.04660 | 22199 ft | 397 kts | 269° |
| 2026-05-07 10:46 | -33.75893 | 20.01328 | 21416 ft | 400 kts | 269° |
| 2026-05-07 10:47 | -33.75805 | 19.98031 | 21165 ft | 386 kts | 269° |
| 2026-05-07 10:47 | -33.75716 | 19.94881 | 20886 ft | 368 kts | 269° |
| 2026-05-07 10:47 | -33.75632 | 19.91877 | 20609 ft | 353 kts | 268° |
| 2026-05-07 10:47 | -33.75551 | 19.88960 | 20303 ft | 347 kts | 268° |
| 2026-05-07 10:48 | -33.75473 | 19.86092 | 19921 ft | 340 kts | 268° |
| 2026-05-07 10:48 | -33.75396 | 19.83263 | 19577 ft | 337 kts | 268° |
| 2026-05-07 10:48 | -33.75319 | 19.80455 | 19214 ft | 335 kts | 268° |
| 2026-05-07 10:48 | -33.75241 | 19.77660 | 18847 ft | 333 kts | 268° |
| 2026-05-07 10:49 | -33.75163 | 19.74880 | 18490 ft | 332 kts | 268° |
| 2026-05-07 10:49 | -33.75085 | 19.72113 | 18091 ft | 331 kts | 268° |
| 2026-05-07 10:49 | -33.75006 | 19.69362 | 17709 ft | 329 kts | 268° |
| 2026-05-07 10:49 | -33.74926 | 19.66620 | 17342 ft | 327 kts | 268° |
| 2026-05-07 10:50 | -33.74847 | 19.63901 | 16992 ft | 325 kts | 268° |
| 2026-05-07 10:50 | -33.74768 | 19.61231 | 16638 ft | 323 kts | 268° |
| 2026-05-07 10:50 | -33.74687 | 19.58533 | 16291 ft | 322 kts | 268° |
| 2026-05-07 10:50 | -33.74607 | 19.55848 | 15946 ft | 321 kts | 268° |
| 2026-05-07 10:51 | -33.74553 | 19.54056 | 15715 ft | 320 kts | 268° |
| 2026-05-07 10:51 | -33.74497 | 19.52223 | 15480 ft | 319 kts | 268° |
| 2026-05-07 10:51 | -33.74416 | 19.49564 | 15148 ft | 317 kts | 268° |
| 2026-05-07 10:51 | -33.74335 | 19.46913 | 14793 ft | 316 kts | 268° |
| 2026-05-07 10:52 | -33.74253 | 19.44279 | 14466 ft | 314 kts | 268° |
| 2026-05-07 10:52 | -33.74172 | 19.41660 | 14136 ft | 313 kts | 268° |
| 2026-05-07 10:52 | -33.74091 | 19.39081 | 13780 ft | 312 kts | 268° |
| 2026-05-07 10:52 | -33.74009 | 19.36478 | 13398 ft | 311 kts | 268° |
| 2026-05-07 10:53 | -33.73926 | 19.33892 | 13065 ft | 308 kts | 268° |
| 2026-05-07 10:53 | -33.73844 | 19.31320 | 12731 ft | 306 kts | 268° |
| 2026-05-07 10:53 | -33.73761 | 19.28763 | 12411 ft | 305 kts | 269° |
| 2026-05-07 10:53 | -33.73679 | 19.26219 | 12046 ft | 304 kts | 269° |
| 2026-05-07 10:54 | -33.73596 | 19.23695 | 11754 ft | 302 kts | 269° |
| 2026-05-07 10:54 | -33.73513 | 19.21174 | 11427 ft | 302 kts | 269° |
| 2026-05-07 10:54 | -33.73431 | 19.18663 | 11064 ft | 299 kts | 269° |
| 2026-05-07 10:54 | -33.73348 | 19.16190 | 10797 ft | 295 kts | 269° |
| 2026-05-07 10:55 | -33.73266 | 19.13756 | 10554 ft | 293 kts | 269° |
| 2026-05-07 10:55 | -33.73185 | 19.11345 | 10412 ft | 286 kts | 269° |
| 2026-05-07 10:55 | -33.73105 | 19.08989 | 10284 ft | 279 kts | 269° |
| 2026-05-07 10:55 | -33.73026 | 19.06687 | 10129 ft | 274 kts | 270° |
| 2026-05-07 10:56 | -33.72949 | 19.04405 | 9836 ft | 273 kts | 270° |
| 2026-05-07 10:56 | -33.72871 | 19.02127 | 9507 ft | 274 kts | 270° |
| 2026-05-07 10:56 | -33.72793 | 18.99821 | 9115 ft | 276 kts | 270° |
| 2026-05-07 10:56 | -33.72714 | 18.97520 | 8823 ft | 276 kts | 270° |
| 2026-05-07 10:57 | -33.72633 | 18.95218 | 8539 ft | 275 kts | 270° |
| 2026-05-07 10:57 | -33.72552 | 18.92927 | 8252 ft | 274 kts | 270° |
| 2026-05-07 10:57 | -33.72472 | 18.90640 | 7969 ft | 273 kts | 270° |
| 2026-05-07 10:57 | -33.72391 | 18.88365 | 7701 ft | 271 kts | 270° |
| 2026-05-07 10:58 | -33.72310 | 18.86108 | 7433 ft | 270 kts | 270° |
| 2026-05-07 10:58 | -33.72230 | 18.83862 | 7166 ft | 269 kts | 270° |
| 2026-05-07 10:58 | -33.72149 | 18.81624 | 6900 ft | 267 kts | 270° |
| 2026-05-07 10:58 | -33.72069 | 18.79395 | 6636 ft | 267 kts | 270° |
| 2026-05-07 10:59 | -33.71988 | 18.77174 | 6352 ft | 265 kts | 270° |
| 2026-05-07 10:59 | -33.71908 | 18.74967 | 6093 ft | 264 kts | 270° |
| 2026-05-07 10:59 | -33.71829 | 18.72788 | 5826 ft | 263 kts | 270° |
| 2026-05-07 10:59 | -33.71748 | 18.70604 | 5576 ft | 261 kts | 270° |
| 2026-05-07 11:00 | -33.71671 | 18.68430 | 5329 ft | 260 kts | 268° |
| 2026-05-07 11:00 | -33.71987 | 18.66337 | 5096 ft | 253 kts | 248° |
| 2026-05-07 11:00 | -33.72485 | 18.64342 | 4983 ft | 249 kts | 253° |
| 2026-05-07 11:00 | -33.72912 | 18.62329 | 4709 ft | 248 kts | 253° |
| 2026-05-07 11:01 | -33.73327 | 18.60333 | 4383 ft | 242 kts | 253° |
| 2026-05-07 11:01 | -33.73729 | 18.58401 | 4105 ft | 235 kts | 253° |
| 2026-05-07 11:01 | -33.74277 | 18.56589 | 3827 ft | 227 kts | 232° |
| 2026-05-07 11:01 | -33.75438 | 18.55423 | 3589 ft | 213 kts | 200° |
| 2026-05-07 11:02 | -33.76820 | 18.54886 | 3390 ft | 206 kts | 191° |
| 2026-05-07 11:02 | -33.78197 | 18.54529 | 3162 ft | 203 kts | 183° |
| 2026-05-07 11:02 | -33.79568 | 18.54791 | 3041 ft | 203 kts | 160° |
| 2026-05-07 11:02 | -33.80927 | 18.55254 | 3013 ft | 203 kts | 165° |
| 2026-05-07 11:03 | -33.82281 | 18.55650 | 2989 ft | 194 kts | 164° |
| 2026-05-07 11:03 | -33.83554 | 18.56046 | 2849 ft | 184 kts | 163° |
| 2026-05-07 11:03 | -33.84795 | 18.56440 | 2578 ft | 184 kts | 163° |
| 2026-05-07 11:03 | -33.86023 | 18.56831 | 2318 ft | 183 kts | 164° |
| 2026-05-07 11:04 | -33.87247 | 18.57230 | 2063 ft | 180 kts | 164° |
| 2026-05-07 11:04 | -33.88418 | 18.57609 | 1852 ft | 168 kts | 164° |
| 2026-05-07 11:04 | -33.89503 | 18.57945 | 1640 ft | 160 kts | 165° |
| 2026-05-07 11:04 | -33.90563 | 18.58272 | 1409 ft | 150 kts | 165° |
| 2026-05-07 11:05 | -33.91551 | 18.58596 | 1192 ft | 142 kts | 165° |
| 2026-05-07 11:05 | -33.92498 | 18.58890 | 960 ft | 141 kts | 165° |
| 2026-05-07 11:05 | -33.93461 | 18.59207 | 775 ft | 145 kts | 164° |
| 2026-05-07 11:05 | -33.94422 | 18.59516 | 550 ft | 140 kts | 165° |
| 2026-05-07 11:06 | -33.95355 | 18.59808 | 350 ft | 140 kts | 165° |
| 2026-05-07 11:06 | -33.96273 | 18.60098 | 166 ft | 138 kts | 164° |
| 2026-05-07 11:06 | -33.97080 | 18.60352 | 155 ft | 95 kts | 165° |
| 2026-05-07 11:06 | -33.97559 | 18.60504 | 151 ft | 51 kts | 165° |
| 2026-05-07 11:07 | -33.97765 | 18.60554 | 153 ft | 17 kts | 200° |
| 2026-05-07 11:07 | -33.97773 | 18.60430 | 153 ft | 16 kts | 285° |
| 2026-05-07 11:07 | -33.97744 | 18.60306 | 153 ft | 15 kts | 285° |
| 2026-05-07 11:07 | -33.97712 | 18.60195 | 153 ft | 12 kts | 316° |
| 2026-05-07 11:08 | -33.97636 | 18.60156 | 153 ft | 12 kts | 341° |
| 2026-05-07 11:08 | -33.97562 | 18.60120 | 153 ft | 11 kts | 335° |
| 2026-05-07 11:08 | -33.97483 | 18.60078 | 153 ft | 15 kts | 343° |
| 2026-05-07 11:08 | -33.97368 | 18.60039 | 153 ft | 19 kts | 344° |
| 2026-05-07 11:09 | -33.97238 | 18.59998 | 153 ft | 19 kts | 346° |
| 2026-05-07 11:09 | -33.97116 | 18.59961 | 153 ft | 17 kts | 349° |
| 2026-05-07 11:09 | -33.97030 | 18.59941 | 153 ft | 8 kts | 338° |
| 2026-05-07 11:09 | -33.97027 | 18.59885 | 153 ft | 4 kts | 254° |
| 2026-05-07 11:10 | -33.97033 | 18.59858 | 153 ft | 2 kts | 255° |
| 2026-05-07 11:10 | -33.97035 | 18.59851 | 153 ft | 0 kts | 255° |